Viimsi — ES2084 — position and weather

sailwx.info

Track history (hours):
 
Tides and Currents Weather Stations Pressure Air Temp Water Temp Dewpoint Dewpoint Depression Visibility Wind Speed Wind Dir Waves Ship Positions

Viimsi

Last reported at 2016-Apr-29 12:27 UTC. Time now 2016-May-03 14:21 UTC.
Position N 59°28' E 024°38'.

Length 78 m; draft 4.5 m.

Type: Ship. MMSI: 276297000.

Date/timePositionNaut miles runAvg speedWind from/ knotsBaromVisibWave heightAir tempDewpointWater temp
2016-Apr-29 12:27N 59°28' E 024°38'0 0.0
2016-Apr-29 02:33N 59°28' E 024°38'9 0.4
2016-Apr-28 02:32N 59°35' E 024°48'0 0.3
2016-Apr-28 01:21N 59°35' E 024°48'0 0.0
2016-Apr-28 00:23N 59°35' E 024°48'0 0.0
2016-Apr-27 22:23N 59°35' E 024°48'0 0.0
2016-Apr-27 21:29N 59°35' E 024°48'10 0.2
2016-Apr-26 03:28N 59°29' E 024°32'6 0.3
2016-Apr-25 06:29N 59°28' E 024°43'0 0.0
2016-Apr-25 05:33N 59°28' E 024°43'4 3.7
2016-Apr-25 04:33N 59°30' E 024°38'4 0.9
2016-Apr-25 00:26N 59°31' E 024°31'2 2.7
2016-Apr-24 23:32N 59°30' E 024°35'5 0.7
2016-Apr-24 16:33N 59°28' E 024°43'0 0.0
2016-Apr-24 15:33N 59°28' E 024°43'0 0.0
2016-Apr-24 14:33N 59°28' E 024°43'0 0.0
2016-Apr-24 13:20N 59°28' E 024°43'0 0.0
2016-Apr-24 12:27N 59°28' E 024°43'0 0.0
2016-Apr-24 10:30N 59°28' E 024°43'0 0.0
2016-Apr-24 09:24N 59°28' E 024°43'0 0.0
2016-Apr-24 08:11N 59°28' E 024°43'4 4.9
2016-Apr-24 07:25N 59°30' E 024°37'4 0.2
2016-Apr-23 05:33N 59°28' E 024°43'0 0.0
2016-Apr-21 05:33N 59°28' E 024°44'1 0.1
2016-Apr-20 19:32N 59°29' E 024°44'3 2.8
2016-Apr-20 18:33N 59°28' E 024°39'0 0.0
2016-Apr-20 17:33N 59°28' E 024°39'0 0.0
2016-Apr-20 16:33N 59°28' E 024°39'0 0.0
2016-Apr-20 15:33N 59°28' E 024°39'0 0.0
2016-Apr-20 14:33N 59°28' E 024°39'0 0.0
2016-Apr-20 13:33N 59°28' E 024°39'1 0.6
2016-Apr-20 12:33N 59°28' E 024°38'1 0.1
2016-Apr-19 22:33N 59°28' E 024°36'2 0.2
2016-Apr-19 15:31N 59°28' E 024°39'0 0.0
2016-Apr-19 12:28N 59°28' E 024°39'  
Track history (hours):
 
Tides and Currents Weather Stations Pressure Air Temp Water Temp Dewpoint Dewpoint Depression Visibility Wind Speed Wind Dir Waves Ship Positions

Viimsi

Last reported at 2016-Apr-29 12:27 UTC. Time now 2016-May-03 14:21 UTC.
Position N 59°28' E 024°38'.

Length 78 m; draft 4.5 m.

Type: Ship. MMSI: 276297000.

Date/timePositionNaut miles runAvg speedWind from/ knotsBaromVisibWave heightAir tempDewpointWater temp
2016-Apr-29 12:27N 59°28' E 024°38'0 0.0
2016-Apr-29 02:33N 59°28' E 024°38'9 0.4
2016-Apr-28 02:32N 59°35' E 024°48'0 0.3
2016-Apr-28 01:21N 59°35' E 024°48'0 0.0
2016-Apr-28 00:23N 59°35' E 024°48'0 0.0
2016-Apr-27 22:23N 59°35' E 024°48'0 0.0
2016-Apr-27 21:29N 59°35' E 024°48'10 0.2
2016-Apr-26 03:28N 59°29' E 024°32'6 0.3
2016-Apr-25 06:29N 59°28' E 024°43'0 0.0
2016-Apr-25 05:33N 59°28' E 024°43'4 3.7
2016-Apr-25 04:33N 59°30' E 024°38'4 0.9
2016-Apr-25 00:26N 59°31' E 024°31'2 2.7
2016-Apr-24 23:32N 59°30' E 024°35'5 0.7
2016-Apr-24 16:33N 59°28' E 024°43'0 0.0
2016-Apr-24 15:33N 59°28' E 024°43'0 0.0
2016-Apr-24 14:33N 59°28' E 024°43'0 0.0
2016-Apr-24 13:20N 59°28' E 024°43'0 0.0
2016-Apr-24 12:27N 59°28' E 024°43'0 0.0
2016-Apr-24 10:30N 59°28' E 024°43'0 0.0
2016-Apr-24 09:24N 59°28' E 024°43'0 0.0
2016-Apr-24 08:11N 59°28' E 024°43'4 4.9
2016-Apr-24 07:25N 59°30' E 024°37'4 0.2
2016-Apr-23 05:33N 59°28' E 024°43'0 0.0
2016-Apr-21 05:33N 59°28' E 024°44'1 0.1
2016-Apr-20 19:32N 59°29' E 024°44'3 2.8
2016-Apr-20 18:33N 59°28' E 024°39'0 0.0
2016-Apr-20 17:33N 59°28' E 024°39'0 0.0
2016-Apr-20 16:33N 59°28' E 024°39'0 0.0
2016-Apr-20 15:33N 59°28' E 024°39'0 0.0
2016-Apr-20 14:33N 59°28' E 024°39'0 0.0
2016-Apr-20 13:33N 59°28' E 024°39'1 0.6
2016-Apr-20 12:33N 59°28' E 024°38'1 0.1
2016-Apr-19 22:33N 59°28' E 024°36'2 0.2
2016-Apr-19 15:31N 59°28' E 024°39'0 0.0
2016-Apr-19 12:28N 59°28' E 024°39'  

Dump ship's entire track history